createdAt,value
2019-03-25T00:00:04.721Z,7.31
2019-03-25T00:05:12.127Z,7.26
2019-03-25T00:10:17.829Z,7.18
2019-03-25T00:15:23.363Z,7.14
2019-03-25T00:20:28.881Z,7.10
2019-03-25T00:25:34.523Z,6.96
2019-03-25T00:30:40.085Z,6.90
2019-03-25T00:35:45.983Z,6.86
2019-03-25T00:40:52.139Z,6.77
2019-03-25T00:45:57.809Z,6.71
2019-03-25T00:51:03.288Z,6.69
2019-03-25T00:56:08.804Z,6.69
2019-03-25T01:01:14.923Z,6.72
2019-03-25T01:06:20.479Z,6.66
2019-03-25T01:11:26.093Z,6.60
2019-03-25T01:16:31.687Z,6.69
2019-03-25T01:21:38.829Z,6.61
2019-03-25T01:26:44.271Z,6.61
2019-03-25T01:31:49.835Z,6.62
2019-03-25T01:36:55.509Z,6.53
2019-03-25T01:42:01.347Z,6.49
2019-03-25T01:47:07.032Z,6.49
2019-03-25T01:52:12.574Z,6.47
2019-03-25T01:57:18.158Z,6.44
2019-03-25T02:02:23.871Z,6.44
2019-03-25T02:07:29.335Z,6.41
2019-03-25T02:12:52.523Z,6.39
2019-03-25T02:17:58.091Z,6.36
2019-03-25T02:23:03.740Z,6.40
2019-03-25T02:28:09.404Z,6.37
2019-03-25T02:33:16.075Z,6.30
2019-03-25T02:38:21.932Z,6.31
2019-03-25T02:43:27.552Z,6.39
2019-03-25T02:48:33.044Z,6.40
2019-03-25T02:53:38.580Z,6.46
2019-03-25T02:58:45.594Z,6.39
2019-03-25T03:03:51.233Z,6.42
2019-03-25T03:08:56.779Z,6.38
2019-03-25T03:14:02.307Z,6.40
2019-03-25T03:19:07.897Z,6.38
2019-03-25T03:24:13.437Z,6.41
2019-03-25T03:29:18.998Z,6.41
2019-03-25T03:34:24.874Z,6.40
2019-03-25T03:39:30.306Z,6.43
2019-03-25T03:44:36.239Z,6.41
2019-03-25T03:49:41.763Z,6.43
2019-03-25T03:54:47.710Z,6.29
2019-03-25T03:59:53.359Z,6.23
2019-03-25T04:04:59.184Z,6.21
2019-03-25T04:10:05.121Z,6.13
2019-03-25T04:15:13.858Z,6.17
2019-03-25T04:20:19.416Z,6.12
2019-03-25T04:25:24.963Z,6.05
2019-03-25T04:30:32.214Z,6.05
2019-03-25T04:35:37.746Z,6.04
2019-03-25T04:40:43.260Z,6.00
2019-03-25T04:45:49.084Z,5.96
2019-03-25T04:50:54.595Z,5.90
2019-03-25T04:56:00.314Z,5.92
2019-03-25T05:01:05.878Z,5.91
2019-03-25T05:06:12.567Z,5.89
2019-03-25T05:11:18.108Z,5.85
2019-03-25T05:16:23.847Z,5.83
2019-03-25T05:21:29.348Z,5.84
2019-03-25T05:26:34.937Z,5.82
2019-03-25T05:31:40.487Z,5.77
2019-03-25T05:36:51.214Z,5.77
2019-03-25T05:41:56.806Z,5.84
2019-03-25T05:47:02.618Z,5.80
2019-03-25T05:52:08.139Z,5.93
2019-03-25T05:57:14.159Z,5.96
2019-03-25T06:02:20.077Z,6.05
2019-03-25T06:07:25.741Z,6.08
2019-03-25T06:12:32.373Z,5.97
2019-03-25T06:17:38.149Z,5.97
2019-03-25T06:22:44.273Z,5.93
2019-03-25T06:27:50.215Z,5.91
2019-03-25T06:32:56.857Z,5.99
2019-03-25T06:38:02.382Z,5.97
2019-03-25T06:43:08.189Z,5.97
2019-03-25T06:48:14.015Z,5.97
2019-03-25T06:53:20.976Z,6.04
2019-03-25T06:58:26.551Z,5.94
2019-03-25T07:03:37.427Z,5.97
2019-03-25T07:08:42.999Z,5.95
2019-03-25T07:13:48.623Z,6.01
2019-03-25T07:18:55.635Z,6.09
2019-03-25T07:24:02.616Z,6.03
2019-03-25T07:29:08.540Z,6.01
2019-03-25T07:34:14.171Z,6.00
2019-03-25T07:39:20.065Z,5.96
2019-03-25T07:44:25.641Z,5.95
2019-03-25T07:49:31.985Z,5.96
2019-03-25T07:54:38.377Z,6.01
2019-03-25T07:59:43.971Z,5.99
2019-03-25T08:04:49.800Z,5.99
2019-03-25T08:09:55.612Z,6.09
2019-03-25T08:15:01.403Z,6.10
2019-03-25T08:20:10.504Z,6.19
2019-03-25T08:25:16.271Z,6.37
2019-03-25T08:30:21.821Z,6.79
2019-03-25T08:35:27.647Z,7.03
2019-03-25T08:40:33.322Z,7.05
2019-03-25T08:45:38.946Z,7.29
2019-03-25T08:50:44.473Z,7.55
2019-03-25T08:55:51.323Z,7.54
2019-03-25T09:00:57.021Z,7.47
2019-03-25T09:06:03.698Z,7.42
2019-03-25T09:11:09.711Z,7.46
2019-03-25T09:16:15.500Z,7.42
2019-03-25T09:21:21.118Z,7.35
2019-03-25T09:26:27.113Z,7.45
2019-03-25T09:31:36.911Z,7.79
2019-03-25T09:36:40.023Z,7.68
2019-03-25T09:41:45.700Z,7.47
2019-03-25T09:46:51.647Z,7.36
2019-03-25T09:51:57.378Z,7.35
2019-03-25T09:57:03.160Z,7.45
2019-03-25T10:02:09.092Z,8.47
2019-03-25T10:07:23.591Z,9.09
2019-03-25T10:12:29.194Z,8.94
2019-03-25T10:17:34.826Z,8.75
2019-03-25T10:22:40.536Z,8.54
2019-03-25T10:27:46.078Z,8.80
2019-03-25T10:32:51.657Z,8.71
2019-03-25T10:37:58.614Z,8.51
2019-03-25T10:43:04.302Z,8.37
2019-03-25T10:48:09.990Z,8.62
2019-03-25T10:53:17.301Z,8.53
2019-03-25T10:58:22.834Z,8.48
2019-03-25T11:03:28.434Z,8.57
2019-03-25T11:08:34.143Z,8.80
2019-03-25T11:13:40.881Z,8.96
2019-03-25T11:18:46.523Z,8.90
2019-03-25T11:23:52.069Z,8.63
2019-03-25T11:29:04.388Z,8.65
2019-03-25T11:34:05.126Z,8.56
2019-03-25T11:39:11.010Z,8.71
2019-03-25T11:44:16.667Z,9.08
2019-03-25T11:49:22.195Z,9.20
2019-03-25T11:54:47.778Z,9.06
2019-03-25T11:59:53.395Z,9.06
2019-03-25T12:04:59.141Z,8.91
2019-03-25T12:10:04.756Z,8.68
2019-03-25T12:15:11.596Z,8.22
2019-03-25T12:20:17.193Z,8.01
2019-03-25T12:25:23.166Z,8.10
2019-03-25T12:30:29.014Z,8.18
2019-03-25T12:35:35.109Z,8.18
2019-03-25T12:40:40.860Z,8.07
2019-03-25T12:51:18.415Z,7.57
2019-03-25T12:56:24.105Z,7.07
2019-03-25T13:01:30.043Z,6.79
2019-03-25T13:06:35.719Z,6.54
2019-03-25T13:11:41.280Z,6.57
2019-03-25T13:16:46.840Z,6.79
2019-03-25T13:21:52.567Z,6.79
2019-03-25T13:26:58.697Z,6.69
2019-03-25T13:32:04.447Z,6.64
2019-03-25T13:37:15.244Z,6.53
2019-03-25T13:42:20.826Z,6.41
2019-03-25T13:47:26.489Z,6.32
2019-03-25T13:52:33.226Z,6.55
2019-03-25T13:57:38.901Z,7.13
2019-03-25T14:02:44.542Z,9.18
2019-03-25T14:07:50.109Z,11.06
2019-03-25T14:12:55.797Z,12.39
2019-03-25T14:18:03.185Z,11.91
2019-03-25T14:23:09.241Z,10.11
2019-03-25T14:28:15.867Z,9.14
2019-03-25T14:33:21.631Z,8.59
2019-03-25T14:38:27.247Z,8.11
2019-03-25T14:43:32.925Z,7.74
2019-03-25T14:48:38.737Z,7.39
2019-03-25T14:53:45.317Z,7.15
2019-03-25T14:58:51.281Z,7.11
2019-03-25T15:03:57.089Z,7.18
2019-03-25T15:09:02.749Z,7.41
2019-03-25T15:14:09.841Z,7.43
2019-03-25T15:19:15.399Z,7.26
2019-03-25T15:24:21.389Z,7.14
2019-03-25T15:29:27.355Z,6.92
2019-03-25T15:34:34.079Z,6.84
2019-03-25T15:39:46.609Z,6.90
2019-03-25T15:44:46.873Z,7.05
2019-03-25T15:49:52.498Z,6.83
2019-03-25T15:54:58.144Z,6.41
2019-03-25T16:00:04.695Z,6.17
2019-03-25T16:05:10.833Z,6.05
2019-03-25T16:10:17.226Z,6.01
2019-03-25T16:15:40.491Z,6.08
2019-03-25T16:20:46.079Z,6.15
2019-03-25T16:25:55.368Z,6.29
2019-03-25T16:31:01.159Z,6.47
2019-03-25T16:36:07.783Z,6.52
2019-03-25T16:41:13.453Z,6.60
2019-03-25T16:46:19.201Z,6.67
2019-03-25T16:51:24.940Z,6.74
2019-03-25T16:56:30.473Z,6.83
2019-03-25T17:01:36.525Z,6.90
2019-03-25T17:06:42.223Z,6.83
2019-03-25T17:11:47.787Z,6.81
2019-03-25T17:16:53.771Z,6.90
2019-03-25T17:21:59.512Z,6.95
2019-03-25T17:27:05.115Z,6.99
2019-03-25T17:32:10.833Z,6.88
2019-03-25T17:37:17.508Z,6.83
2019-03-25T17:42:23.377Z,6.82
2019-03-25T17:47:29.265Z,6.76
2019-03-25T17:52:34.757Z,6.69
2019-03-25T17:57:40.254Z,6.57
2019-03-25T18:02:47.796Z,6.48
2019-03-25T18:07:53.907Z,6.45
2019-03-25T18:13:01.407Z,6.49
2019-03-25T18:18:10.078Z,6.55
2019-03-25T18:23:15.779Z,6.56
2019-03-25T18:28:21.954Z,6.55
2019-03-25T18:33:27.961Z,6.58
2019-03-25T18:38:33.525Z,6.62
2019-03-25T18:43:39.146Z,6.64
2019-03-25T18:48:44.898Z,6.59
2019-03-25T18:53:51.009Z,6.53
2019-03-25T18:58:56.613Z,6.50
2019-03-25T19:04:02.303Z,6.44
2019-03-25T19:09:09.590Z,6.37
2019-03-25T19:14:15.351Z,6.24
2019-03-25T19:19:24.032Z,6.19
2019-03-25T19:24:29.991Z,6.21
2019-03-25T19:29:36.245Z,6.21
2019-03-25T19:34:42.316Z,6.12
2019-03-25T19:39:47.866Z,6.01
2019-03-25T19:44:53.599Z,5.95
2019-03-25T19:49:59.163Z,5.95
2019-03-25T19:55:04.641Z,5.94
2019-03-25T20:00:10.598Z,5.94
2019-03-25T20:05:17.258Z,6.00
2019-03-25T20:10:33.746Z,6.02
2019-03-25T20:15:46.442Z,6.00
2019-03-25T20:20:49.555Z,6.01
2019-03-25T20:25:55.198Z,5.96
2019-03-25T20:31:00.859Z,5.94
2019-03-25T20:36:06.760Z,5.91
2019-03-25T20:41:12.338Z,5.84
2019-03-25T20:46:18.320Z,5.84
2019-03-25T20:51:24.155Z,5.87
2019-03-25T20:56:29.878Z,5.86
2019-03-25T21:01:35.581Z,5.87
2019-03-25T21:06:41.576Z,5.90
2019-03-25T21:11:47.237Z,5.85
2019-03-25T21:16:53.126Z,5.80
2019-03-25T21:21:58.666Z,5.80
2019-03-25T21:27:04.419Z,5.81
2019-03-25T21:32:10.194Z,5.79
2019-03-25T21:37:15.878Z,5.79
2019-03-25T21:42:21.618Z,5.74
2019-03-25T21:47:27.240Z,5.77
2019-03-25T21:52:33.328Z,5.74
2019-03-25T21:57:38.985Z,5.78
2019-03-25T22:02:49.569Z,5.77
2019-03-25T22:07:55.060Z,5.78
2019-03-25T22:13:00.710Z,5.85
2019-03-25T22:18:06.272Z,5.92
2019-03-25T22:23:11.939Z,5.92
2019-03-25T22:28:18.667Z,5.90
2019-03-25T22:33:26.141Z,5.86
2019-03-25T22:38:31.882Z,5.88
2019-03-25T22:43:37.524Z,5.88
2019-03-25T22:48:43.286Z,5.92
2019-03-25T22:53:49.035Z,5.91
2019-03-25T22:58:54.478Z,5.91
2019-03-25T23:04:00.128Z,5.91
2019-03-25T23:09:07.354Z,5.91
2019-03-25T23:14:13.106Z,5.95
2019-03-25T23:19:19.906Z,5.94
2019-03-25T23:24:25.958Z,5.94
2019-03-25T23:29:31.868Z,5.94
2019-03-25T23:34:37.838Z,5.94
2019-03-25T23:39:43.806Z,5.97
2019-03-25T23:44:51.204Z,5.95
2019-03-25T23:49:58.285Z,5.95
2019-03-25T23:55:04.324Z,5.91
